sensor_id;sensor_type;location;lat;lon;timestamp;P1;durP1;ratioP1;P2;durP2;ratioP2
14613;SDS011;7393;51.446;6.800;2023-08-06T00:00:29;3.63;;;2.60;;
14613;SDS011;7393;51.446;6.800;2023-08-06T00:02:56;3.80;;;2.53;;
14613;SDS011;7393;51.446;6.800;2023-08-06T00:05:23;3.43;;;2.40;;
14613;SDS011;7393;51.446;6.800;2023-08-06T00:07:50;4.67;;;2.67;;
14613;SDS011;7393;51.446;6.800;2023-08-06T00:10:17;3.53;;;2.57;;
14613;SDS011;7393;51.446;6.800;2023-08-06T00:12:44;3.63;;;2.63;;
14613;SDS011;7393;51.446;6.800;2023-08-06T00:15:12;6.50;;;2.77;;
14613;SDS011;7393;51.446;6.800;2023-08-06T00:17:39;4.43;;;2.60;;
14613;SDS011;7393;51.446;6.800;2023-08-06T00:20:06;4.00;;;2.60;;
14613;SDS011;7393;51.446;6.800;2023-08-06T00:22:34;2.90;;;2.47;;
14613;SDS011;7393;51.446;6.800;2023-08-06T00:25:02;4.07;;;2.50;;
14613;SDS011;7393;51.446;6.800;2023-08-06T00:27:29;3.60;;;2.40;;
14613;SDS011;7393;51.446;6.800;2023-08-06T00:29:57;2.80;;;2.60;;
14613;SDS011;7393;51.446;6.800;2023-08-06T00:32:25;2.67;;;2.27;;
14613;SDS011;7393;51.446;6.800;2023-08-06T00:34:52;3.00;;;2.53;;
14613;SDS011;7393;51.446;6.800;2023-08-06T00:37:19;2.90;;;2.50;;
14613;SDS011;7393;51.446;6.800;2023-08-06T00:39:46;4.17;;;2.87;;
14613;SDS011;7393;51.446;6.800;2023-08-06T00:42:12;3.43;;;2.47;;
14613;SDS011;7393;51.446;6.800;2023-08-06T00:44:41;3.07;;;2.77;;
14613;SDS011;7393;51.446;6.800;2023-08-06T00:47:07;2.90;;;2.37;;
14613;SDS011;7393;51.446;6.800;2023-08-06T00:49:37;4.37;;;2.73;;
14613;SDS011;7393;51.446;6.800;2023-08-06T00:52:05;5.77;;;2.70;;
14613;SDS011;7393;51.446;6.800;2023-08-06T00:54:33;3.40;;;2.40;;
14613;SDS011;7393;51.446;6.800;2023-08-06T00:57:02;4.07;;;2.30;;
14613;SDS011;7393;51.446;6.800;2023-08-06T00:59:30;6.57;;;3.10;;
14613;SDS011;7393;51.446;6.800;2023-08-06T01:01:58;2.93;;;2.40;;
14613;SDS011;7393;51.446;6.800;2023-08-06T01:04:24;6.27;;;3.00;;
14613;SDS011;7393;51.446;6.800;2023-08-06T01:06:55;2.97;;;2.43;;
14613;SDS011;7393;51.446;6.800;2023-08-06T01:09:31;3.27;;;2.60;;
14613;SDS011;7393;51.446;6.800;2023-08-06T01:12:09;4.33;;;2.90;;
14613;SDS011;7393;51.446;6.800;2023-08-06T01:14:45;5.13;;;2.93;;
14613;SDS011;7393;51.446;6.800;2023-08-06T01:17:18;5.37;;;2.40;;
14613;SDS011;7393;51.446;6.800;2023-08-06T01:19:46;2.80;;;2.57;;
14613;SDS011;7393;51.446;6.800;2023-08-06T01:22:14;3.57;;;2.80;;
14613;SDS011;7393;51.446;6.800;2023-08-06T01:24:41;3.63;;;2.63;;
14613;SDS011;7393;51.446;6.800;2023-08-06T01:27:14;3.77;;;2.40;;
14613;SDS011;7393;51.446;6.800;2023-08-06T01:29:49;2.77;;;2.50;;
14613;SDS011;7393;51.446;6.800;2023-08-06T01:32:23;4.50;;;2.50;;
14613;SDS011;7393;51.446;6.800;2023-08-06T01:34:52;3.97;;;2.40;;
14613;SDS011;7393;51.446;6.800;2023-08-06T01:37:22;5.30;;;2.70;;
14613;SDS011;7393;51.446;6.800;2023-08-06T01:39:49;3.40;;;2.20;;
14613;SDS011;7393;51.446;6.800;2023-08-06T01:42:16;4.70;;;2.80;;
14613;SDS011;7393;51.446;6.800;2023-08-06T01:44:43;2.80;;;2.20;;
14613;SDS011;7393;51.446;6.800;2023-08-06T01:47:10;2.50;;;2.30;;
14613;SDS011;7393;51.446;6.800;2023-08-06T01:49:37;4.20;;;2.30;;
14613;SDS011;7393;51.446;6.800;2023-08-06T01:52:04;3.10;;;2.43;;
14613;SDS011;7393;51.446;6.800;2023-08-06T01:54:33;2.83;;;2.20;;
14613;SDS011;7393;51.446;6.800;2023-08-06T01:57:00;3.30;;;2.23;;
14613;SDS011;7393;51.446;6.800;2023-08-06T01:59:26;2.93;;;2.30;;
14613;SDS011;7393;51.446;6.800;2023-08-06T02:01:53;4.63;;;2.30;;
14613;SDS011;7393;51.446;6.800;2023-08-06T02:04:20;2.47;;;2.20;;
14613;SDS011;7393;51.446;6.800;2023-08-06T02:06:47;3.63;;;2.50;;
14613;SDS011;7393;51.446;6.800;2023-08-06T02:09:13;2.90;;;2.60;;
14613;SDS011;7393;51.446;6.800;2023-08-06T02:11:42;5.63;;;2.20;;
14613;SDS011;7393;51.446;6.800;2023-08-06T02:14:09;4.87;;;2.53;;
14613;SDS011;7393;51.446;6.800;2023-08-06T02:16:35;4.80;;;2.50;;
14613;SDS011;7393;51.446;6.800;2023-08-06T02:19:02;4.97;;;2.40;;
14613;SDS011;7393;51.446;6.800;2023-08-06T02:21:29;4.53;;;2.20;;
14613;SDS011;7393;51.446;6.800;2023-08-06T02:23:56;2.40;;;2.10;;
14613;SDS011;7393;51.446;6.800;2023-08-06T02:26:23;2.40;;;2.20;;
14613;SDS011;7393;51.446;6.800;2023-08-06T02:28:51;2.97;;;2.50;;
14613;SDS011;7393;51.446;6.800;2023-08-06T02:31:18;3.63;;;2.60;;
14613;SDS011;7393;51.446;6.800;2023-08-06T02:33:44;4.33;;;2.70;;
14613;SDS011;7393;51.446;6.800;2023-08-06T02:36:11;2.67;;;2.20;;
14613;SDS011;7393;51.446;6.800;2023-08-06T02:38:38;3.07;;;2.23;;
14613;SDS011;7393;51.446;6.800;2023-08-06T02:41:05;3.17;;;2.10;;
14613;SDS011;7393;51.446;6.800;2023-08-06T02:43:31;4.13;;;2.50;;
14613;SDS011;7393;51.446;6.800;2023-08-06T02:46:00;2.53;;;2.33;;
14613;SDS011;7393;51.446;6.800;2023-08-06T02:48:27;2.87;;;2.13;;
14613;SDS011;7393;51.446;6.800;2023-08-06T02:50:56;4.40;;;2.50;;
14613;SDS011;7393;51.446;6.800;2023-08-06T02:53:24;2.43;;;2.23;;
14613;SDS011;7393;51.446;6.800;2023-08-06T02:55:51;2.73;;;2.10;;
14613;SDS011;7393;51.446;6.800;2023-08-06T02:58:18;3.03;;;2.50;;
14613;SDS011;7393;51.446;6.800;2023-08-06T03:00:47;5.13;;;2.53;;
14613;SDS011;7393;51.446;6.800;2023-08-06T03:03:27;5.00;;;2.50;;
14613;SDS011;7393;51.446;6.800;2023-08-06T03:05:54;4.50;;;2.40;;
14613;SDS011;7393;51.446;6.800;2023-08-06T03:08:21;3.73;;;2.27;;
14613;SDS011;7393;51.446;6.800;2023-08-06T03:10:48;3.30;;;2.20;;
14613;SDS011;7393;51.446;6.800;2023-08-06T03:13:15;4.70;;;2.50;;
14613;SDS011;7393;51.446;6.800;2023-08-06T03:15:42;4.23;;;2.20;;
14613;SDS011;7393;51.446;6.800;2023-08-06T03:18:10;2.30;;;2.10;;
14613;SDS011;7393;51.446;6.800;2023-08-06T03:20:37;3.03;;;1.90;;
14613;SDS011;7393;51.446;6.800;2023-08-06T03:23:04;2.73;;;2.43;;
14613;SDS011;7393;51.446;6.800;2023-08-06T03:25:30;2.53;;;1.87;;
14613;SDS011;7393;51.446;6.800;2023-08-06T03:27:57;2.90;;;2.27;;
14613;SDS011;7393;51.446;6.800;2023-08-06T03:30:24;2.53;;;2.17;;
14613;SDS011;7393;51.446;6.800;2023-08-06T03:32:51;6.20;;;2.60;;
14613;SDS011;7393;51.446;6.800;2023-08-06T03:35:19;3.87;;;2.43;;
14613;SDS011;7393;51.446;6.800;2023-08-06T03:37:47;3.57;;;2.50;;
14613;SDS011;7393;51.446;6.800;2023-08-06T03:40:14;2.80;;;2.30;;
14613;SDS011;7393;51.446;6.800;2023-08-06T03:42:41;3.20;;;1.90;;
14613;SDS011;7393;51.446;6.800;2023-08-06T03:45:08;4.07;;;2.40;;
14613;SDS011;7393;51.446;6.800;2023-08-06T03:47:35;3.60;;;2.00;;
14613;SDS011;7393;51.446;6.800;2023-08-06T03:50:02;2.93;;;2.27;;
14613;SDS011;7393;51.446;6.800;2023-08-06T03:52:31;3.00;;;2.10;;
14613;SDS011;7393;51.446;6.800;2023-08-06T03:54:58;2.20;;;2.00;;
14613;SDS011;7393;51.446;6.800;2023-08-06T03:57:24;3.23;;;2.20;;
14613;SDS011;7393;51.446;6.800;2023-08-06T03:59:51;3.73;;;2.10;;
14613;SDS011;7393;51.446;6.800;2023-08-06T04:02:18;6.23;;;2.03;;
14613;SDS011;7393;51.446;6.800;2023-08-06T04:04:45;4.27;;;2.67;;
14613;SDS011;7393;51.446;6.800;2023-08-06T04:07:11;2.90;;;2.33;;
14613;SDS011;7393;51.446;6.800;2023-08-06T04:09:52;2.67;;;2.47;;
14613;SDS011;7393;51.446;6.800;2023-08-06T04:12:20;4.30;;;2.20;;
14613;SDS011;7393;51.446;6.800;2023-08-06T04:14:47;2.60;;;2.40;;
14613;SDS011;7393;51.446;6.800;2023-08-06T04:17:13;5.80;;;3.10;;
14613;SDS011;7393;51.446;6.800;2023-08-06T04:19:40;2.90;;;2.60;;
14613;SDS011;7393;51.446;6.800;2023-08-06T04:22:07;3.30;;;2.33;;
14613;SDS011;7393;51.446;6.800;2023-08-06T04:24:34;3.53;;;2.70;;
14613;SDS011;7393;51.446;6.800;2023-08-06T04:27:02;4.43;;;2.30;;
14613;SDS011;7393;51.446;6.800;2023-08-06T04:29:29;3.17;;;2.40;;
14613;SDS011;7393;51.446;6.800;2023-08-06T04:31:56;2.43;;;2.20;;
14613;SDS011;7393;51.446;6.800;2023-08-06T04:34:24;2.63;;;2.37;;
14613;SDS011;7393;51.446;6.800;2023-08-06T04:36:50;3.47;;;2.30;;
14613;SDS011;7393;51.446;6.800;2023-08-06T04:39:17;5.27;;;2.50;;
14613;SDS011;7393;51.446;6.800;2023-08-06T04:41:44;3.83;;;2.20;;
14613;SDS011;7393;51.446;6.800;2023-08-06T04:44:12;2.70;;;2.10;;
14613;SDS011;7393;51.446;6.800;2023-08-06T04:46:39;2.80;;;2.00;;
14613;SDS011;7393;51.446;6.800;2023-08-06T04:49:05;2.80;;;2.37;;
14613;SDS011;7393;51.446;6.800;2023-08-06T04:51:32;6.00;;;2.40;;
14613;SDS011;7393;51.446;6.800;2023-08-06T04:53:59;3.50;;;2.33;;
14613;SDS011;7393;51.446;6.800;2023-08-06T04:56:26;3.50;;;2.53;;
14613;SDS011;7393;51.446;6.800;2023-08-06T04:58:53;3.63;;;2.20;;
14613;SDS011;7393;51.446;6.800;2023-08-06T05:01:21;4.23;;;2.20;;
14613;SDS011;7393;51.446;6.800;2023-08-06T05:03:48;4.17;;;2.10;;
14613;SDS011;7393;51.446;6.800;2023-08-06T05:06:14;3.97;;;2.20;;
14613;SDS011;7393;51.446;6.800;2023-08-06T05:08:41;2.30;;;2.10;;
14613;SDS011;7393;51.446;6.800;2023-08-06T05:11:08;2.73;;;2.20;;
14613;SDS011;7393;51.446;6.800;2023-08-06T05:13:35;5.17;;;2.17;;
14613;SDS011;7393;51.446;6.800;2023-08-06T05:16:02;5.00;;;2.20;;
14613;SDS011;7393;51.446;6.800;2023-08-06T05:18:30;4.03;;;2.53;;
14613;SDS011;7393;51.446;6.800;2023-08-06T05:20:59;4.50;;;2.20;;
14613;SDS011;7393;51.446;6.800;2023-08-06T05:23:26;3.20;;;2.10;;
14613;SDS011;7393;51.446;6.800;2023-08-06T05:25:53;2.67;;;1.87;;
14613;SDS011;7393;51.446;6.800;2023-08-06T05:28:19;4.10;;;2.20;;
14613;SDS011;7393;51.446;6.800;2023-08-06T05:30:46;3.13;;;2.40;;
14613;SDS011;7393;51.446;6.800;2023-08-06T05:33:13;3.90;;;2.20;;
14613;SDS011;7393;51.446;6.800;2023-08-06T05:35:41;2.50;;;2.30;;
14613;SDS011;7393;51.446;6.800;2023-08-06T05:38:08;3.13;;;2.00;;
14613;SDS011;7393;51.446;6.800;2023-08-06T05:40:35;2.90;;;2.20;;
14613;SDS011;7393;51.446;6.800;2023-08-06T05:43:02;2.97;;;2.00;;
14613;SDS011;7393;51.446;6.800;2023-08-06T05:45:28;3.60;;;2.20;;
14613;SDS011;7393;51.446;6.800;2023-08-06T05:47:55;2.40;;;2.20;;
14613;SDS011;7393;51.446;6.800;2023-08-06T05:50:23;6.27;;;2.40;;
14613;SDS011;7393;51.446;6.800;2023-08-06T05:52:52;4.90;;;2.10;;
14613;SDS011;7393;51.446;6.800;2023-08-06T05:55:19;2.47;;;2.20;;
14613;SDS011;7393;51.446;6.800;2023-08-06T05:57:46;3.03;;;2.33;;
14613;SDS011;7393;51.446;6.800;2023-08-06T06:00:13;2.27;;;2.07;;
14613;SDS011;7393;51.446;6.800;2023-08-06T06:02:40;3.37;;;2.43;;
14613;SDS011;7393;51.446;6.800;2023-08-06T06:05:07;3.13;;;1.93;;
14613;SDS011;7393;51.446;6.800;2023-08-06T06:07:34;4.73;;;2.10;;
14613;SDS011;7393;51.446;6.800;2023-08-06T06:10:02;4.07;;;2.20;;
14613;SDS011;7393;51.446;6.800;2023-08-06T06:12:29;2.90;;;2.03;;
14613;SDS011;7393;51.446;6.800;2023-08-06T06:14:56;4.30;;;2.00;;
14613;SDS011;7393;51.446;6.800;2023-08-06T06:17:23;3.00;;;1.80;;
14613;SDS011;7393;51.446;6.800;2023-08-06T06:19:50;3.43;;;2.07;;
14613;SDS011;7393;51.446;6.800;2023-08-06T06:22:17;5.60;;;2.20;;
14613;SDS011;7393;51.446;6.800;2023-08-06T06:24:44;3.57;;;2.20;;
14613;SDS011;7393;51.446;6.800;2023-08-06T06:27:12;3.70;;;2.20;;
14613;SDS011;7393;51.446;6.800;2023-08-06T06:29:39;2.50;;;2.00;;
14613;SDS011;7393;51.446;6.800;2023-08-06T06:32:06;2.57;;;2.00;;
14613;SDS011;7393;51.446;6.800;2023-08-06T06:34:32;3.67;;;2.17;;
14613;SDS011;7393;51.446;6.800;2023-08-06T06:36:59;2.57;;;1.93;;
14613;SDS011;7393;51.446;6.800;2023-08-06T06:39:26;2.23;;;2.03;;
14613;SDS011;7393;51.446;6.800;2023-08-06T06:41:53;3.40;;;2.10;;
14613;SDS011;7393;51.446;6.800;2023-08-06T06:44:21;2.27;;;2.07;;
14613;SDS011;7393;51.446;6.800;2023-08-06T06:46:48;4.43;;;2.27;;
14613;SDS011;7393;51.446;6.800;2023-08-06T06:49:14;5.00;;;2.10;;
14613;SDS011;7393;51.446;6.800;2023-08-06T06:51:41;3.67;;;2.23;;
14613;SDS011;7393;51.446;6.800;2023-08-06T06:54:08;2.60;;;2.00;;
14613;SDS011;7393;51.446;6.800;2023-08-06T06:56:35;4.10;;;2.07;;
14613;SDS011;7393;51.446;6.800;2023-08-06T06:59:02;2.47;;;2.03;;
14613;SDS011;7393;51.446;6.800;2023-08-06T07:01:30;3.80;;;2.03;;
14613;SDS011;7393;51.446;6.800;2023-08-06T07:03:56;4.00;;;2.20;;
14613;SDS011;7393;51.446;6.800;2023-08-06T07:06:23;3.43;;;2.40;;
14613;SDS011;7393;51.446;6.800;2023-08-06T07:08:51;4.10;;;2.23;;
14613;SDS011;7393;51.446;6.800;2023-08-06T07:11:17;4.07;;;2.37;;
14613;SDS011;7393;51.446;6.800;2023-08-06T07:13:44;2.43;;;2.10;;
14613;SDS011;7393;51.446;6.800;2023-08-06T07:16:11;3.23;;;2.57;;
14613;SDS011;7393;51.446;6.800;2023-08-06T07:18:39;4.57;;;2.77;;
14613;SDS011;7393;51.446;6.800;2023-08-06T07:21:06;2.90;;;2.30;;
14613;SDS011;7393;51.446;6.800;2023-08-06T07:23:33;4.43;;;2.40;;
14613;SDS011;7393;51.446;6.800;2023-08-06T07:25:59;4.00;;;2.70;;
14613;SDS011;7393;51.446;6.800;2023-08-06T07:28:26;3.73;;;2.60;;
14613;SDS011;7393;51.446;6.800;2023-08-06T07:30:53;3.23;;;2.33;;
14613;SDS011;7393;51.446;6.800;2023-08-06T07:33:20;3.40;;;2.50;;
14613;SDS011;7393;51.446;6.800;2023-08-06T07:35:48;3.10;;;2.50;;
14613;SDS011;7393;51.446;6.800;2023-08-06T07:38:15;15.80;;;2.77;;
14613;SDS011;7393;51.446;6.800;2023-08-06T07:40:41;3.20;;;2.13;;
14613;SDS011;7393;51.446;6.800;2023-08-06T07:43:08;4.70;;;2.63;;
14613;SDS011;7393;51.446;6.800;2023-08-06T07:45:35;4.00;;;2.80;;
14613;SDS011;7393;51.446;6.800;2023-08-06T07:48:02;2.37;;;2.17;;
14613;SDS011;7393;51.446;6.800;2023-08-06T07:50:30;3.97;;;2.53;;
14613;SDS011;7393;51.446;6.800;2023-08-06T07:52:58;5.67;;;2.20;;
14613;SDS011;7393;51.446;6.800;2023-08-06T07:55:25;3.57;;;2.30;;
14613;SDS011;7393;51.446;6.800;2023-08-06T07:57:53;3.80;;;2.33;;
14613;SDS011;7393;51.446;6.800;2023-08-06T08:00:20;3.27;;;2.50;;
14613;SDS011;7393;51.446;6.800;2023-08-06T08:02:47;3.57;;;2.60;;
14613;SDS011;7393;51.446;6.800;2023-08-06T08:05:14;2.53;;;2.20;;
14613;SDS011;7393;51.446;6.800;2023-08-06T08:07:41;3.30;;;2.10;;
14613;SDS011;7393;51.446;6.800;2023-08-06T08:10:09;4.80;;;3.03;;
14613;SDS011;7393;51.446;6.800;2023-08-06T08:12:36;6.20;;;5.00;;
14613;SDS011;7393;51.446;6.800;2023-08-06T08:15:03;5.70;;;5.10;;
14613;SDS011;7393;51.446;6.800;2023-08-06T08:17:31;5.80;;;5.23;;
14613;SDS011;7393;51.446;6.800;2023-08-06T08:19:59;7.83;;;4.53;;
14613;SDS011;7393;51.446;6.800;2023-08-06T08:22:26;5.53;;;4.47;;
14613;SDS011;7393;51.446;6.800;2023-08-06T08:24:53;5.53;;;4.07;;
14613;SDS011;7393;51.446;6.800;2023-08-06T08:27:21;7.23;;;4.43;;
14613;SDS011;7393;51.446;6.800;2023-08-06T08:29:48;4.27;;;3.80;;
14613;SDS011;7393;51.446;6.800;2023-08-06T08:32:15;5.13;;;4.07;;
14613;SDS011;7393;51.446;6.800;2023-08-06T08:34:41;4.23;;;3.43;;
14613;SDS011;7393;51.446;6.800;2023-08-06T08:37:09;5.17;;;3.40;;
14613;SDS011;7393;51.446;6.800;2023-08-06T08:39:36;5.30;;;3.33;;
14613;SDS011;7393;51.446;6.800;2023-08-06T08:42:02;3.83;;;3.17;;
14613;SDS011;7393;51.446;6.800;2023-08-06T08:44:32;6.77;;;3.53;;
14613;SDS011;7393;51.446;6.800;2023-08-06T08:47:01;4.00;;;2.50;;
14613;SDS011;7393;51.446;6.800;2023-08-06T08:49:28;6.07;;;2.60;;
14613;SDS011;7393;51.446;6.800;2023-08-06T08:51:56;5.83;;;2.90;;
14613;SDS011;7393;51.446;6.800;2023-08-06T08:54:25;6.13;;;3.20;;
14613;SDS011;7393;51.446;6.800;2023-08-06T08:56:53;5.53;;;3.27;;
14613;SDS011;7393;51.446;6.800;2023-08-06T08:59:21;6.20;;;2.97;;
14613;SDS011;7393;51.446;6.800;2023-08-06T09:01:49;5.23;;;3.40;;
14613;SDS011;7393;51.446;6.800;2023-08-06T09:04:17;5.07;;;3.30;;
14613;SDS011;7393;51.446;6.800;2023-08-06T09:06:45;5.40;;;3.50;;
14613;SDS011;7393;51.446;6.800;2023-08-06T09:09:13;5.37;;;3.87;;
14613;SDS011;7393;51.446;6.800;2023-08-06T09:11:43;6.20;;;3.80;;
14613;SDS011;7393;51.446;6.800;2023-08-06T09:14:13;5.20;;;3.97;;
14613;SDS011;7393;51.446;6.800;2023-08-06T09:16:39;5.37;;;3.37;;
14613;SDS011;7393;51.446;6.800;2023-08-06T09:19:08;5.10;;;4.13;;
14613;SDS011;7393;51.446;6.800;2023-08-06T09:21:38;5.50;;;3.90;;
14613;SDS011;7393;51.446;6.800;2023-08-06T09:24:08;5.27;;;4.00;;
14613;SDS011;7393;51.446;6.800;2023-08-06T09:26:36;5.17;;;3.80;;
14613;SDS011;7393;51.446;6.800;2023-08-06T09:29:04;8.20;;;5.00;;
14613;SDS011;7393;51.446;6.800;2023-08-06T09:31:32;6.80;;;4.70;;
14613;SDS011;7393;51.446;6.800;2023-08-06T09:34:00;9.37;;;6.37;;
14613;SDS011;7393;51.446;6.800;2023-08-06T09:36:28;7.00;;;4.83;;
14613;SDS011;7393;51.446;6.800;2023-08-06T09:38:56;8.43;;;5.60;;
14613;SDS011;7393;51.446;6.800;2023-08-06T09:41:26;6.73;;;4.60;;
14613;SDS011;7393;51.446;6.800;2023-08-06T09:43:53;8.33;;;4.37;;
14613;SDS011;7393;51.446;6.800;2023-08-06T09:46:20;5.37;;;3.10;;
14613;SDS011;7393;51.446;6.800;2023-08-06T09:48:47;6.30;;;2.70;;
14613;SDS011;7393;51.446;6.800;2023-08-06T09:51:15;3.80;;;2.40;;
14613;SDS011;7393;51.446;6.800;2023-08-06T09:53:44;3.53;;;2.33;;
14613;SDS011;7393;51.446;6.800;2023-08-06T09:56:13;4.37;;;2.40;;
14613;SDS011;7393;51.446;6.800;2023-08-06T09:58:41;4.73;;;2.60;;
14613;SDS011;7393;51.446;6.800;2023-08-06T10:01:08;3.53;;;3.07;;
14613;SDS011;7393;51.446;6.800;2023-08-06T10:03:37;4.13;;;2.43;;
14613;SDS011;7393;51.446;6.800;2023-08-06T10:06:06;3.07;;;2.67;;
14613;SDS011;7393;51.446;6.800;2023-08-06T10:08:34;4.17;;;2.47;;
14613;SDS011;7393;51.446;6.800;2023-08-06T10:11:03;4.63;;;2.37;;
14613;SDS011;7393;51.446;6.800;2023-08-06T10:13:30;5.50;;;3.00;;
14613;SDS011;7393;51.446;6.800;2023-08-06T10:15:59;6.30;;;5.20;;
14613;SDS011;7393;51.446;6.800;2023-08-06T10:18:26;9.57;;;5.73;;
14613;SDS011;7393;51.446;6.800;2023-08-06T10:20:54;8.13;;;6.50;;
14613;SDS011;7393;51.446;6.800;2023-08-06T10:23:21;9.93;;;6.80;;
14613;SDS011;7393;51.446;6.800;2023-08-06T10:26:00;8.17;;;7.23;;
14613;SDS011;7393;51.446;6.800;2023-08-06T10:28:33;8.67;;;7.77;;
14613;SDS011;7393;51.446;6.800;2023-08-06T10:31:01;8.47;;;7.70;;
14613;SDS011;7393;51.446;6.800;2023-08-06T10:33:39;8.40;;;7.60;;
14613;SDS011;7393;51.446;6.800;2023-08-06T10:36:08;8.40;;;7.17;;
14613;SDS011;7393;51.446;6.800;2023-08-06T10:38:43;10.00;;;8.10;;
14613;SDS011;7393;51.446;6.800;2023-08-06T10:41:16;8.47;;;7.67;;
14613;SDS011;7393;51.446;6.800;2023-08-06T10:43:49;10.50;;;8.63;;
14613;SDS011;7393;51.446;6.800;2023-08-06T10:46:23;8.37;;;7.57;;
14613;SDS011;7393;51.446;6.800;2023-08-06T10:48:53;8.43;;;7.47;;
14613;SDS011;7393;51.446;6.800;2023-08-06T10:51:20;8.57;;;7.57;;
14613;SDS011;7393;51.446;6.800;2023-08-06T10:53:47;8.10;;;7.40;;
14613;SDS011;7393;51.446;6.800;2023-08-06T10:56:17;7.57;;;6.30;;
14613;SDS011;7393;51.446;6.800;2023-08-06T10:58:47;1.90;;;1.80;;
14613;SDS011;7393;51.446;6.800;2023-08-06T11:01:14;2.53;;;1.33;;
14613;SDS011;7393;51.446;6.800;2023-08-06T11:03:41;2.57;;;1.10;;
14613;SDS011;7393;51.446;6.800;2023-08-06T11:06:09;1.63;;;1.00;;
14613;SDS011;7393;51.446;6.800;2023-08-06T11:08:36;4.30;;;0.90;;
14613;SDS011;7393;51.446;6.800;2023-08-06T11:11:08;2.30;;;1.07;;
14613;SDS011;7393;51.446;6.800;2023-08-06T11:13:37;2.33;;;0.97;;
14613;SDS011;7393;51.446;6.800;2023-08-06T11:16:04;2.43;;;1.17;;
14613;SDS011;7393;51.446;6.800;2023-08-06T11:18:31;3.17;;;1.30;;
14613;SDS011;7393;51.446;6.800;2023-08-06T11:20:58;3.47;;;1.10;;
14613;SDS011;7393;51.446;6.800;2023-08-06T11:23:26;2.47;;;1.20;;
14613;SDS011;7393;51.446;6.800;2023-08-06T11:25:54;3.50;;;0.87;;
14613;SDS011;7393;51.446;6.800;2023-08-06T11:28:21;2.00;;;1.00;;
14613;SDS011;7393;51.446;6.800;2023-08-06T11:30:49;1.63;;;1.03;;
14613;SDS011;7393;51.446;6.800;2023-08-06T11:33:19;2.17;;;0.80;;
14613;SDS011;7393;51.446;6.800;2023-08-06T11:35:48;3.33;;;1.00;;
14613;SDS011;7393;51.446;6.800;2023-08-06T11:38:14;2.43;;;1.17;;
14613;SDS011;7393;51.446;6.800;2023-08-06T11:40:43;3.33;;;1.30;;
14613;SDS011;7393;51.446;6.800;2023-08-06T11:43:10;2.77;;;1.00;;
14613;SDS011;7393;51.446;6.800;2023-08-06T11:45:38;2.03;;;1.00;;
14613;SDS011;7393;51.446;6.800;2023-08-06T11:48:06;2.33;;;1.10;;
14613;SDS011;7393;51.446;6.800;2023-08-06T11:50:36;1.00;;;1.00;;
14613;SDS011;7393;51.446;6.800;2023-08-06T11:53:04;1.53;;;1.17;;
14613;SDS011;7393;51.446;6.800;2023-08-06T11:55:31;1.13;;;0.93;;
14613;SDS011;7393;51.446;6.800;2023-08-06T11:57:58;2.10;;;1.00;;
14613;SDS011;7393;51.446;6.800;2023-08-06T12:00:29;2.60;;;0.90;;
14613;SDS011;7393;51.446;6.800;2023-08-06T12:02:56;0.77;;;0.70;;
14613;SDS011;7393;51.446;6.800;2023-08-06T12:05:28;0.70;;;0.63;;
14613;SDS011;7393;51.446;6.800;2023-08-06T12:07:56;1.20;;;0.60;;
14613;SDS011;7393;51.446;6.800;2023-08-06T12:10:25;1.00;;;0.67;;
14613;SDS011;7393;51.446;6.800;2023-08-06T12:12:52;1.23;;;0.70;;
14613;SDS011;7393;51.446;6.800;2023-08-06T12:15:19;1.60;;;0.60;;
14613;SDS011;7393;51.446;6.800;2023-08-06T12:17:46;2.27;;;0.60;;
14613;SDS011;7393;51.446;6.800;2023-08-06T12:20:13;1.50;;;0.80;;
14613;SDS011;7393;51.446;6.800;2023-08-06T12:22:42;0.70;;;0.63;;
14613;SDS011;7393;51.446;6.800;2023-08-06T12:25:11;1.03;;;0.77;;
14613;SDS011;7393;51.446;6.800;2023-08-06T12:27:38;0.80;;;0.80;;
14613;SDS011;7393;51.446;6.800;2023-08-06T12:30:06;1.03;;;0.80;;
14613;SDS011;7393;51.446;6.800;2023-08-06T12:32:33;0.90;;;0.90;;
14613;SDS011;7393;51.446;6.800;2023-08-06T12:35:00;1.37;;;1.00;;
14613;SDS011;7393;51.446;6.800;2023-08-06T12:37:28;1.60;;;1.13;;
14613;SDS011;7393;51.446;6.800;2023-08-06T12:39:56;2.00;;;1.00;;
14613;SDS011;7393;51.446;6.800;2023-08-06T12:42:22;2.33;;;1.30;;
14613;SDS011;7393;51.446;6.800;2023-08-06T12:44:50;1.20;;;1.10;;
14613;SDS011;7393;51.446;6.800;2023-08-06T12:47:17;1.50;;;1.40;;
14613;SDS011;7393;51.446;6.800;2023-08-06T12:49:44;2.67;;;1.60;;
14613;SDS011;7393;51.446;6.800;2023-08-06T12:52:11;3.10;;;1.87;;
14613;SDS011;7393;51.446;6.800;2023-08-06T12:54:40;2.67;;;1.70;;
14613;SDS011;7393;51.446;6.800;2023-08-06T12:57:08;2.87;;;1.43;;
14613;SDS011;7393;51.446;6.800;2023-08-06T12:59:35;1.60;;;1.50;;
14613;SDS011;7393;51.446;6.800;2023-08-06T13:02:02;1.57;;;1.47;;
14613;SDS011;7393;51.446;6.800;2023-08-06T13:04:29;1.60;;;1.50;;
14613;SDS011;7393;51.446;6.800;2023-08-06T13:06:56;1.53;;;1.43;;
14613;SDS011;7393;51.446;6.800;2023-08-06T13:09:23;2.03;;;1.53;;
14613;SDS011;7393;51.446;6.800;2023-08-06T13:11:51;2.47;;;1.60;;
14613;SDS011;7393;51.446;6.800;2023-08-06T13:14:19;1.70;;;1.60;;
14613;SDS011;7393;51.446;6.800;2023-08-06T13:16:46;2.27;;;1.67;;
14613;SDS011;7393;51.446;6.800;2023-08-06T13:19:13;2.03;;;1.70;;
14613;SDS011;7393;51.446;6.800;2023-08-06T13:21:58;2.27;;;1.80;;
14613;SDS011;7393;51.446;6.800;2023-08-06T13:24:28;2.97;;;2.00;;
14613;SDS011;7393;51.446;6.800;2023-08-06T13:26:54;2.83;;;2.30;;
14613;SDS011;7393;51.446;6.800;2023-08-06T13:29:23;6.17;;;2.53;;
14613;SDS011;7393;51.446;6.800;2023-08-06T13:31:50;2.60;;;2.30;;
14613;SDS011;7393;51.446;6.800;2023-08-06T13:34:17;3.17;;;2.40;;
14613;SDS011;7393;51.446;6.800;2023-08-06T13:36:44;2.53;;;2.10;;
14613;SDS011;7393;51.446;6.800;2023-08-06T13:39:10;2.43;;;2.23;;
14613;SDS011;7393;51.446;6.800;2023-08-06T13:41:37;2.30;;;2.10;;
14613;SDS011;7393;51.446;6.800;2023-08-06T13:44:05;2.80;;;2.10;;
14613;SDS011;7393;51.446;6.800;2023-08-06T13:46:34;2.60;;;1.97;;
14613;SDS011;7393;51.446;6.800;2023-08-06T13:49:01;2.93;;;2.00;;
14613;SDS011;7393;51.446;6.800;2023-08-06T13:51:28;2.77;;;2.30;;
14613;SDS011;7393;51.446;6.800;2023-08-06T13:53:54;3.00;;;2.30;;
14613;SDS011;7393;51.446;6.800;2023-08-06T13:56:22;2.20;;;2.00;;
14613;SDS011;7393;51.446;6.800;2023-08-06T13:58:49;3.20;;;2.20;;
14613;SDS011;7393;51.446;6.800;2023-08-06T14:01:16;2.20;;;2.00;;
14613;SDS011;7393;51.446;6.800;2023-08-06T14:03:45;2.10;;;2.00;;
14613;SDS011;7393;51.446;6.800;2023-08-06T14:06:12;2.30;;;1.90;;
14613;SDS011;7393;51.446;6.800;2023-08-06T14:08:38;3.30;;;1.87;;
14613;SDS011;7393;51.446;6.800;2023-08-06T14:11:05;2.77;;;1.70;;
14613;SDS011;7393;51.446;6.800;2023-08-06T14:13:32;1.93;;;1.57;;
14613;SDS011;7393;51.446;6.800;2023-08-06T14:15:59;2.97;;;1.60;;
14613;SDS011;7393;51.446;6.800;2023-08-06T14:18:26;2.47;;;1.80;;
14613;SDS011;7393;51.446;6.800;2023-08-06T14:20:55;2.00;;;1.87;;
14613;SDS011;7393;51.446;6.800;2023-08-06T14:23:21;2.37;;;2.00;;
14613;SDS011;7393;51.446;6.800;2023-08-06T14:25:48;2.73;;;1.90;;
14613;SDS011;7393;51.446;6.800;2023-08-06T14:28:15;3.27;;;2.00;;
14613;SDS011;7393;51.446;6.800;2023-08-06T14:30:42;3.00;;;1.60;;
14613;SDS011;7393;51.446;6.800;2023-08-06T14:33:08;2.50;;;1.70;;
14613;SDS011;7393;51.446;6.800;2023-08-06T14:35:35;2.47;;;1.80;;
14613;SDS011;7393;51.446;6.800;2023-08-06T14:38:04;4.87;;;1.93;;
14613;SDS011;7393;51.446;6.800;2023-08-06T14:40:30;2.23;;;1.53;;
14613;SDS011;7393;51.446;6.800;2023-08-06T14:43:00;4.03;;;1.60;;
14613;SDS011;7393;51.446;6.800;2023-08-06T14:45:27;2.40;;;1.70;;
14613;SDS011;7393;51.446;6.800;2023-08-06T14:47:54;2.57;;;1.70;;
14613;SDS011;7393;51.446;6.800;2023-08-06T14:50:21;1.93;;;1.73;;
14613;SDS011;7393;51.446;6.800;2023-08-06T14:52:48;2.30;;;1.60;;
14613;SDS011;7393;51.446;6.800;2023-08-06T14:55:22;1.47;;;1.37;;
14613;SDS011;7393;51.446;6.800;2023-08-06T14:57:50;3.10;;;1.50;;
14613;SDS011;7393;51.446;6.800;2023-08-06T15:00:17;1.63;;;1.50;;
14613;SDS011;7393;51.446;6.800;2023-08-06T15:02:43;1.50;;;1.40;;